Time;durP1;ratioP1;P1;durP2;ratioP2;P2;SDS_P1;SDS_P2;PMS_P1;PMS_P2;Temp;Humidity;BMP_temperature;BMP_pressure;BME280_temperature;BME280_humidity;BME280_pressure;Samples;Min_cycle;Max_cycle;Signal;HPM_P1;HPM_P2
2021/06/03 00:00:15;;;;;;;10.27;7.80;;;19.80;93.00;;;;;;5056382;28;20049;-79
2021/06/03 00:02:44;;;;;;;10.38;7.63;;;19.70;93.80;;;;;;5043715;28;20063;-80
2021/06/03 00:05:11;;;;;;;12.43;7.97;;;19.70;94.40;;;;;;5045924;28;20045;-80
2021/06/03 00:07:38;;;;;;;9.68;7.32;;;19.60;94.50;;;;;;5061258;28;20048;-80
2021/06/03 00:10:09;;;;;;;11.77;8.27;;;19.60;94.90;;;;;;5045601;28;20135;-80
2021/06/03 00:12:36;;;;;;;10.43;7.72;;;19.60;95.70;;;;;;5045542;28;20156;-80
2021/06/03 00:15:09;;;;;;;19.88;7.38;;;19.70;96.30;;;;;;5052700;28;21582;-81
2021/06/03 00:17:36;;;;;;;;;;;19.60;96.30;;;;;;5078362;28;20072;-80
2021/06/03 00:20:08;;;;;;;8.20;7.30;;;19.60;96.80;;;;;;5083054;28;20007;-79
2021/06/03 00:22:35;;;;;;;8.85;7.95;;;19.50;97.40;;;;;;5046847;28;20060;-80
2021/06/03 00:25:04;;;;;;;12.07;7.78;;;19.50;98.00;;;;;;5057414;28;20053;-80
2021/06/03 00:27:31;;;;;;;10.10;7.13;;;19.50;98.10;;;;;;5046288;28;20045;-80
2021/06/03 00:29:59;;;;;;;10.35;7.10;;;19.50;98.20;;;;;;5042462;28;20053;-80
2021/06/03 00:32:26;;;;;;;13.13;7.35;;;19.50;99.30;;;;;;5044741;28;20048;-80
2021/06/03 00:34:53;;;;;;;12.68;7.57;;;19.40;99.00;;;;;;5053944;28;20049;-80
2021/06/03 00:37:20;;;;;;;10.90;7.18;;;19.40;99.60;;;;;;5051137;28;20103;-80
2021/06/03 00:39:46;;;;;;;10.10;7.47;;;19.40;99.90;;;;;;5049832;28;20053;-80
2021/06/03 00:42:13;;;;;;;10.55;7.43;;;19.30;99.90;;;;;;5042576;28;20057;-80
2021/06/03 00:44:40;;;;;;;9.02;6.85;;;19.30;99.90;;;;;;5046822;28;20135;-80
2021/06/03 00:47:07;;;;;;;12.10;7.65;;;19.20;99.90;;;;;;5041338;28;20431;-80
2021/06/03 00:49:34;;;;;;;12.60;7.53;;;19.20;99.90;;;;;;5042876;28;20061;-80
2021/06/03 00:52:01;;;;;;;10.82;7.20;;;19.10;99.90;;;;;;5050946;28;20112;-80
2021/06/03 00:54:28;;;;;;;13.95;8.00;;;19.10;99.90;;;;;;5041257;28;20051;-81
2021/06/03 00:56:55;;;;;;;12.23;7.25;;;19.00;99.90;;;;;;5042048;28;20052;-81
2021/06/03 00:59:21;;;;;;;13.10;7.57;;;18.90;99.90;;;;;;5057979;28;20087;-80
2021/06/03 01:01:48;;;;;;;9.07;7.47;;;18.90;99.90;;;;;;5039781;28;20051;-80
2021/06/03 01:04:19;;;;;;;12.02;6.57;;;18.90;99.90;;;;;;5053152;28;20523;-79
2021/06/03 01:06:47;;;;;;;10.35;6.75;;;18.90;99.90;;;;;;5045671;28;20059;-80
2021/06/03 01:09:27;;;;;;;11.80;7.40;;;18.90;99.90;;;;;;5044106;28;20507;-80
2021/06/03 01:12:04;;;;;;;10.52;6.90;;;18.90;99.90;;;;;;5045504;28;20041;-80
2021/06/03 01:14:37;;;;;;;7.63;6.82;;;18.80;99.90;;;;;;5046378;28;20036;-80
2021/06/03 01:17:09;;;;;;;10.32;6.72;;;18.80;99.90;;;;;;5059058;28;20045;-80
2021/06/03 01:19:42;;;;;;;13.00;6.35;;;18.70;99.90;;;;;;5042742;28;20068;-78
2021/06/03 01:22:19;;;;;;;9.05;5.95;;;18.80;99.90;;;;;;5045913;28;20045;-78
2021/06/03 01:24:54;;;;;;;7.03;6.32;;;18.80;99.90;;;;;;5044010;28;20069;-78
2021/06/03 01:27:26;;;;;;;10.52;6.30;;;18.70;99.90;;;;;;5057112;28;20060;-78
2021/06/03 01:30:19;;;;;;;7.65;6.40;;;18.70;99.90;;;;;;5046509;28;20856;-79
2021/06/03 01:32:55;;;;;;;10.30;6.15;;;18.70;99.90;;;;;;5040610;28;20050;-78
2021/06/03 01:35:30;;;;;;;12.32;6.38;;;18.70;99.90;;;;;;5041539;28;20128;-77
2021/06/03 01:37:57;;;;;;;6.15;5.55;;;18.70;99.90;;;;;;5038199;28;20052;-78
2021/06/03 01:40:30;;;;;;;10.95;5.80;;;18.80;99.90;;;;;;5041733;28;20488;-78
2021/06/03 01:42:57;;;;;;;6.85;5.80;;;18.70;99.90;;;;;;5044000;28;20045;-78
2021/06/03 01:45:25;;;;;;;7.05;5.50;;;18.80;99.90;;;;;;5042058;28;20137;-78
2021/06/03 01:47:53;;;;;;;9.02;5.50;;;18.70;99.90;;;;;;5041598;28;20045;-79
2021/06/03 01:50:21;;;;;;;6.13;5.53;;;18.60;99.90;;;;;;5040445;28;20047;-78
2021/06/03 01:52:49;;;;;;;9.73;5.45;;;18.70;99.90;;;;;;5041632;28;20064;-78
2021/06/03 01:55:17;;;;;;;4.93;4.53;;;18.70;99.90;;;;;;5045011;28;20084;-78
2021/06/03 01:57:45;;;;;;;9.82;5.35;;;18.70;99.90;;;;;;5043347;28;20148;-78
2021/06/03 02:00:16;;;;;;;5.90;4.97;;;18.80;99.90;;;;;;5073171;28;20053;-78
2021/06/03 02:02:42;;;;;;;5.70;5.13;;;18.80;99.90;;;;;;5040594;28;20045;-79
2021/06/03 02:05:10;;;;;;;6.88;5.35;;;18.90;99.90;;;;;;5040882;28;20479;-78
2021/06/03 02:07:37;;;;;;;6.38;4.68;;;18.90;99.90;;;;;;5042274;28;20723;-79
2021/06/03 02:10:06;;;;;;;7.40;5.05;;;18.90;99.90;;;;;;5039636;28;20070;-78
2021/06/03 02:12:46;;;;;;;5.93;4.93;;;18.90;99.90;;;;;;5045413;28;20404;-78
2021/06/03 02:15:16;;;;;;;31.88;5.45;;;19.00;99.90;;;;;;5062312;28;20481;-78
2021/06/03 02:17:47;;;;;;;8.70;5.22;;;19.00;99.90;;;;;;5041974;28;20056;-78
2021/06/03 02:20:19;;;;;;;11.75;5.28;;;18.90;99.90;;;;;;5037113;28;20053;-78
2021/06/03 02:22:49;;;;;;;8.02;5.22;;;18.90;99.90;;;;;;5072496;28;20077;-78
2021/06/03 02:25:17;;;;;;;6.20;4.38;;;18.90;99.90;;;;;;5054664;28;20408;-80
2021/06/03 02:27:44;;;;;;;7.95;4.50;;;18.90;99.90;;;;;;5039039;28;20049;-81
2021/06/03 02:30:17;;;;;;;5.10;4.25;;;18.90;99.90;;;;;;5039474;28;20456;-79
2021/06/03 02:32:46;;;;;;;5.20;4.28;;;19.00;99.90;;;;;;5055973;28;20053;-80
2021/06/03 02:35:13;;;;;;;4.88;4.20;;;19.00;99.90;;;;;;5040741;28;20053;-79
2021/06/03 02:37:44;;;;;;;7.30;3.90;;;19.00;99.90;;;;;;5038810;28;20053;-80
2021/06/03 02:40:21;;;;;;;4.70;4.20;;;19.00;99.90;;;;;;5039689;28;20064;-78
2021/06/03 02:42:49;;;;;;;3.85;3.55;;;19.00;99.90;;;;;;5055974;28;20045;-79
2021/06/03 02:45:31;;;;;;;3.78;3.38;;;19.10;99.90;;;;;;5071553;28;20077;-78
2021/06/03 02:47:59;;;;;;;5.32;3.85;;;19.10;99.90;;;;;;5035955;28;20492;-79
2021/06/03 02:50:27;;;;;;;6.72;3.45;;;19.10;99.90;;;;;;5043689;28;20395;-78
2021/06/03 02:52:55;;;;;;;4.47;3.20;;;19.10;99.90;;;;;;5045385;28;20053;-79
2021/06/03 02:55:23;;;;;;;7.03;3.20;;;19.20;99.90;;;;;;5041009;28;20528;-79
2021/06/03 02:57:50;;;;;;;3.50;3.08;;;19.30;99.90;;;;;;5045709;28;20404;-80
2021/06/03 03:00:23;;;;;;;5.32;3.20;;;19.30;99.90;;;;;;5042560;28;20053;-79
2021/06/03 03:02:50;;;;;;;6.10;3.50;;;19.40;99.90;;;;;;5047453;28;20059;-80
2021/06/03 03:05:18;;;;;;;3.85;3.47;;;19.40;99.90;;;;;;5037279;28;20501;-79
2021/06/03 03:07:45;;;;;;;4.57;3.20;;;19.40;99.90;;;;;;5039384;28;20041;-79
2021/06/03 03:10:19;;;;;;;3.17;2.88;;;19.40;99.90;;;;;;5042676;28;20048;-79
2021/06/03 03:12:46;;;;;;;3.30;3.00;;;19.40;99.90;;;;;;5043809;28;20052;-79
2021/06/03 03:15:15;;;;;;;3.90;3.10;;;19.40;99.90;;;;;;5042213;28;20063;-79
2021/06/03 03:17:42;;;;;;;4.88;3.45;;;19.30;99.90;;;;;;5053167;28;20477;-79
2021/06/03 03:20:11;;;;;;;5.68;3.22;;;19.30;99.90;;;;;;5055703;28;20049;-79
2021/06/03 03:22:49;;;;;;;7.43;3.30;;;19.30;99.90;;;;;;5038934;28;20080;-79
2021/06/03 03:25:18;;;;;;;5.53;3.08;;;19.30;99.90;;;;;;5038692;28;20052;-79
2021/06/03 03:27:46;;;;;;;4.35;3.00;;;19.30;99.90;;;;;;5042404;28;20053;-79
2021/06/03 03:30:15;;;;;;;3.85;3.05;;;19.30;99.90;;;;;;5045714;28;20484;-79
2021/06/03 03:32:42;;;;;;;4.90;2.92;;;19.30;99.90;;;;;;5040235;28;20053;-79
2021/06/03 03:35:10;;;;;;;4.63;3.85;;;19.30;99.90;;;;;;5043870;28;20033;-79
2021/06/03 03:37:38;;;;;;;7.72;2.90;;;19.30;99.90;;;;;;5043205;28;20040;-79
2021/06/03 03:40:07;;;;;;;3.63;3.33;;;19.30;99.90;;;;;;5045936;28;20057;-79
2021/06/03 03:42:35;;;;;;;4.55;2.97;;;19.20;99.90;;;;;;5059897;28;20132;-79
2021/06/03 03:45:02;;;;;;;4.68;3.03;;;19.20;99.90;;;;;;5042776;28;20053;-80
2021/06/03 03:47:29;;;;;;;3.75;3.35;;;19.30;99.90;;;;;;5042764;28;20052;-79
2021/06/03 03:49:56;;;;;;;3.50;3.15;;;19.20;99.90;;;;;;5045014;28;20055;-79
2021/06/03 03:52:24;;;;;;;4.78;3.38;;;19.20;99.90;;;;;;5039830;28;20561;-79
2021/06/03 03:54:50;;;;;;;4.70;3.45;;;19.20;99.90;;;;;;5049253;28;20051;-79
2021/06/03 03:57:18;;;;;;;8.52;3.90;;;19.20;99.90;;;;;;5041839;28;20157;-79
2021/06/03 03:59:45;;;;;;;6.93;3.58;;;19.30;99.90;;;;;;5048806;28;20779;-78
2021/06/03 04:02:12;;;;;;;4.95;3.38;;;19.30;99.90;;;;;;5047093;28;20052;-79
2021/06/03 04:04:38;;;;;;;4.50;3.55;;;19.30;99.90;;;;;;5045167;28;20130;-78
2021/06/03 04:07:05;;;;;;;5.05;3.50;;;19.30;99.90;;;;;;5058002;28;20115;-78
2021/06/03 04:09:32;;;;;;;6.65;3.28;;;19.30;99.90;;;;;;5042006;28;20501;-78
2021/06/03 04:11:59;;;;;;;5.78;3.38;;;19.30;99.90;;;;;;5070186;28;20049;-78
2021/06/03 04:14:26;;;;;;;3.63;3.17;;;19.30;99.90;;;;;;5042364;28;20385;-78
2021/06/03 04:16:53;;;;;;;4.22;3.25;;;19.30;99.90;;;;;;5041094;28;20108;-78
2021/06/03 04:19:20;;;;;;;4.40;3.25;;;19.30;99.90;;;;;;5043094;28;20060;-78
2021/06/03 04:21:47;;;;;;;5.68;3.63;;;19.30;99.90;;;;;;5046317;28;20055;-79
2021/06/03 04:24:13;;;;;;;3.78;3.42;;;19.40;99.90;;;;;;5056578;28;21449;-79
2021/06/03 04:26:40;;;;;;;5.72;3.45;;;19.40;99.90;;;;;;5044393;28;20071;-78
2021/06/03 04:29:07;;;;;;;4.00;3.60;;;19.50;99.90;;;;;;5041397;28;20168;-78
2021/06/03 04:31:34;;;;;;;5.50;3.38;;;19.50;99.90;;;;;;5043163;28;20045;-78
2021/06/03 04:34:01;;;;;;;7.28;3.38;;;19.50;99.90;;;;;;5037273;28;20623;-78
2021/06/03 04:36:28;;;;;;;3.78;3.38;;;19.50;99.90;;;;;;5043435;28;20045;-79
2021/06/03 04:38:54;;;;;;;5.43;3.63;;;19.60;99.90;;;;;;5054892;28;20049;-79
2021/06/03 04:41:21;;;;;;;4.90;3.53;;;19.60;99.90;;;;;;5049151;28;20063;-79
2021/06/03 04:43:48;;;;;;;3.78;3.40;;;19.60;99.90;;;;;;5048562;28;20055;-79
2021/06/03 04:46:15;;;;;;;6.38;3.67;;;19.70;99.90;;;;;;5079434;28;20104;-79
2021/06/03 04:48:42;;;;;;;6.55;3.33;;;19.70;99.90;;;;;;5040760;28;20045;-79
2021/06/03 04:51:09;;;;;;;6.45;3.85;;;19.70;99.90;;;;;;5045200;28;20057;-78
2021/06/03 04:53:35;;;;;;;4.03;3.40;;;19.80;99.90;;;;;;5056249;28;20507;-78
2021/06/03 04:56:02;;;;;;;3.65;3.35;;;19.80;99.90;;;;;;5032844;28;20059;-78
2021/06/03 04:58:30;;;;;;;4.18;3.78;;;19.80;99.90;;;;;;5074397;28;20075;-78
2021/06/03 05:00:56;;;;;;;6.63;3.70;;;19.90;99.90;;;;;;5036225;28;20044;-78
2021/06/03 05:03:23;;;;;;;4.40;3.58;;;19.90;99.90;;;;;;5042152;28;20053;-78
2021/06/03 05:05:50;;;;;;;5.28;3.72;;;19.90;99.90;;;;;;5039285;28;20041;-78
2021/06/03 05:08:17;;;;;;;4.35;3.95;;;20.00;99.90;;;;;;5058408;28;20051;-78
2021/06/03 05:10:44;;;;;;;7.10;4.03;;;20.00;99.70;;;;;;5040059;28;24340;-78
2021/06/03 05:13:11;;;;;;;7.72;3.80;;;20.00;99.70;;;;;;5039431;28;20049;-80
2021/06/03 05:15:38;;;;;;;6.05;3.92;;;20.10;99.60;;;;;;5038937;28;20060;-78
2021/06/03 05:18:06;;;;;;;6.65;4.55;;;20.10;99.60;;;;;;5041004;28;20140;-78
2021/06/03 05:20:33;;;;;;;4.20;3.80;;;20.10;99.40;;;;;;5045953;28;20063;-80
2021/06/03 05:23:00;;;;;;;4.38;3.97;;;20.10;99.50;;;;;;5038250;28;20108;-81
2021/06/03 05:25:30;;;;;;;5.55;3.92;;;20.10;99.20;;;;;;5039732;28;20052;-80
2021/06/03 05:27:57;;;;;;;5.78;4.30;;;20.10;99.30;;;;;;5042185;28;20049;-80
2021/06/03 05:30:24;;;;;;;6.10;4.85;;;20.10;99.30;;;;;;5037731;28;20049;-80
2021/06/03 05:32:52;;;;;;;5.50;4.32;;;20.20;99.40;;;;;;5040659;28;20152;-79
2021/06/03 05:35:21;;;;;;;4.93;4.50;;;20.20;99.30;;;;;;5038778;28;20127;-80
2021/06/03 05:37:48;;;;;;;9.05;4.63;;;20.20;99.30;;;;;;5062984;28;24683;-80
2021/06/03 05:40:19;;;;;;;8.07;4.75;;;20.20;99.60;;;;;;5041947;28;20584;-80
2021/06/03 05:42:47;;;;;;;5.45;4.40;;;20.30;99.20;;;;;;5037320;28;20041;-80
2021/06/03 05:45:15;;;;;;;6.90;3.80;;;20.40;99.20;;;;;;5046920;28;20053;-78
2021/06/03 05:47:43;;;;;;;9.85;4.70;;;20.40;99.30;;;;;;5046449;28;20048;-80
2021/06/03 05:50:14;;;;;;;7.10;4.78;;;20.50;99.20;;;;;;5051536;28;20053;-80
2021/06/03 05:52:41;;;;;;;8.65;4.60;;;20.60;99.10;;;;;;5048879;28;20048;-79
2021/06/03 05:55:12;;;;;;;6.03;4.18;;;20.60;98.90;;;;;;5039030;28;20060;-80
2021/06/03 05:57:40;;;;;;;5.03;4.53;;;20.70;98.70;;;;;;5045070;28;20053;-79
2021/06/03 06:00:13;;;;;;;7.90;4.88;;;20.70;98.60;;;;;;5074424;28;20060;-80
2021/06/03 06:02:55;;;;;;;5.28;4.53;;;20.80;98.70;;;;;;5039875;28;20476;-79
2021/06/03 06:08:10;;;;;;;6.15;5.10;;;21.10;98.50;;;;;;5036607;28;20021;-80
2021/06/03 06:10:38;;;;;;;7.53;5.15;;;21.10;98.10;;;;;;5037807;28;20080;-79
2021/06/03 06:13:05;;;;;;;7.68;5.40;;;21.20;98.40;;;;;;5037339;28;20060;-80
2021/06/03 06:15:33;;;;;;;5.47;4.78;;;21.30;98.20;;;;;;5037532;28;20396;-80
2021/06/03 06:18:00;;;;;;;6.47;5.32;;;21.30;98.10;;;;;;5045543;28;20114;-80
2021/06/03 06:20:27;;;;;;;6.28;5.30;;;21.40;97.90;;;;;;5038724;28;20053;-79
2021/06/03 06:22:56;;;;;;;7.88;6.53;;;21.50;97.90;;;;;;5032160;28;20065;-79
2021/06/03 06:25:23;;;;;;;9.48;5.82;;;21.60;97.30;;;;;;5038489;28;20060;-80
2021/06/03 06:27:54;;;;;;;6.57;5.60;;;21.60;97.10;;;;;;5043594;28;20059;-80
2021/06/03 06:30:24;;;;;;;8.50;6.28;;;21.60;97.00;;;;;;5040902;28;20118;-80
2021/06/03 06:32:51;;;;;;;6.30;5.70;;;21.70;97.20;;;;;;5074869;28;20065;-80
2021/06/03 06:35:18;;;;;;;6.80;5.40;;;21.70;96.80;;;;;;5038479;28;20057;-79
2021/06/03 06:37:45;;;;;;;6.47;5.68;;;21.80;96.80;;;;;;5056626;28;20134;-80
2021/06/03 06:40:12;;;;;;;9.95;6.82;;;21.80;96.90;;;;;;5046326;28;20059;-79
2021/06/03 06:42:39;;;;;;;6.95;6.18;;;21.80;96.40;;;;;;5027811;28;20044;-79
2021/06/03 06:45:07;;;;;;;8.93;5.55;;;21.90;96.50;;;;;;5067447;28;20049;-81
2021/06/03 06:47:36;;;;;;;8.15;5.63;;;22.00;96.50;;;;;;5055587;28;20054;-80
2021/06/03 06:50:06;;;;;;;9.07;5.35;;;22.00;96.60;;;;;;5027044;28;20130;-80
2021/06/03 06:52:34;;;;;;;8.35;6.05;;;22.10;96.40;;;;;;5022146;28;20041;-78
2021/06/03 06:55:02;;;;;;;8.55;6.68;;;22.20;96.50;;;;;;5039080;28;20045;-78
2021/06/03 06:57:29;;;;;;;9.95;6.47;;;22.20;96.20;;;;;;5032445;28;20493;-78
2021/06/03 06:59:57;;;;;;;16.38;5.88;;;22.20;96.20;;;;;;5020656;28;20048;-78
2021/06/03 07:02:25;;;;;;;10.70;6.38;;;22.20;95.90;;;;;;5040129;28;20067;-78
2021/06/03 07:04:52;;;;;;;6.03;5.07;;;22.10;96.00;;;;;;5037797;28;20040;-78
2021/06/03 07:07:18;;;;;;;8.45;5.78;;;22.10;95.90;;;;;;5065688;28;20124;-78
2021/06/03 07:09:45;;;;;;;10.75;6.53;;;22.10;96.10;;;;;;5038129;28;20052;-77
2021/06/03 07:12:12;;;;;;;7.60;5.82;;;22.10;96.00;;;;;;5054611;28;20065;-78
2021/06/03 07:14:39;;;;;;;7.32;6.60;;;22.10;95.90;;;;;;5026546;28;20606;-78
2021/06/03 07:17:07;;;;;;;9.45;5.97;;;22.20;95.80;;;;;;5035260;28;20057;-78
2021/06/03 07:19:34;;;;;;;7.45;6.57;;;22.20;96.10;;;;;;5040450;28;20067;-78
2021/06/03 07:22:01;;;;;;;11.52;6.35;;;22.30;95.90;;;;;;5050831;28;20098;-78
2021/06/03 07:24:28;;;;;;;11.77;6.32;;;22.40;95.80;;;;;;5047343;28;20401;-78
2021/06/03 07:26:55;;;;;;;8.68;6.45;;;22.60;95.60;;;;;;5053663;28;20051;-80
2021/06/03 07:29:22;;;;;;;9.38;6.70;;;22.70;95.20;;;;;;5039766;28;20461;-80
2021/06/03 07:31:48;;;;;;;11.75;6.88;;;22.70;95.20;;;;;;5047244;28;20049;-80
2021/06/03 07:34:15;;;;;;;8.60;7.32;;;22.90;94.90;;;;;;5051435;28;20059;-80
2021/06/03 07:36:42;;;;;;;8.77;6.40;;;23.20;94.70;;;;;;5073304;28;20045;-80
2021/06/03 07:39:08;;;;;;;9.57;7.07;;;23.60;94.10;;;;;;5044795;28;20062;-80
2021/06/03 07:41:36;;;;;;;12.73;7.28;;;24.00;93.60;;;;;;5043784;28;20984;-80
2021/06/03 07:44:04;;;;;;;10.57;7.10;;;24.30;92.50;;;;;;5045632;28;20041;-80
2021/06/03 07:46:32;;;;;;;8.55;6.47;;;24.40;92.30;;;;;;5041990;28;20049;-80
2021/06/03 07:49:00;;;;;;;9.30;6.72;;;24.50;92.40;;;;;;5045443;28;20099;-79
2021/06/03 07:51:27;;;;;;;7.60;6.78;;;24.60;92.30;;;;;;5043524;28;20045;-79
2021/06/03 07:53:57;;;;;;;8.90;6.78;;;24.70;91.60;;;;;;5043675;28;20051;-80
2021/06/03 07:56:24;;;;;;;9.38;6.68;;;24.70;92.30;;;;;;5044379;28;20480;-80
2021/06/03 07:58:51;;;;;;;7.93;6.93;;;24.70;91.60;;;;;;5044255;28;20056;-80
2021/06/03 08:01:17;;;;;;;9.80;7.13;;;24.70;91.20;;;;;;5043183;28;20054;-80
2021/06/03 08:03:45;;;;;;;9.40;6.47;;;24.70;91.30;;;;;;5047753;28;20049;-81
2021/06/03 08:06:12;;;;;;;7.65;6.72;;;24.70;91.90;;;;;;5049269;28;20045;-80
2021/06/03 08:08:39;;;;;;;9.98;7.13;;;24.80;90.80;;;;;;5049409;28;20056;-80
2021/06/03 08:11:07;;;;;;;6.80;6.07;;;24.80;90.90;;;;;;5041394;28;20045;-80
2021/06/03 08:13:34;;;;;;;8.35;6.47;;;24.90;90.80;;;;;;5044341;28;20055;-79
2021/06/03 08:16:01;;;;;;;13.32;7.10;;;24.90;91.00;;;;;;5044195;28;20044;-80
2021/06/03 08:18:33;;;;;;;13.75;7.53;;;24.90;90.10;;;;;;5073768;28;20127;-80
2021/06/03 08:21:03;;;;;;;7.00;6.30;;;24.90;90.60;;;;;;5056283;28;20069;-80
2021/06/03 08:23:31;;;;;;;8.88;6.15;;;24.90;90.40;;;;;;5042785;28;21570;-80
2021/06/03 08:25:58;;;;;;;7.18;5.93;;;25.00;90.20;;;;;;5044245;28;20045;-79
2021/06/03 08:28:26;;;;;;;6.70;5.95;;;25.10;90.30;;;;;;5040647;28;20096;-79
2021/06/03 08:30:56;;;;;;;7.72;5.95;;;25.10;90.60;;;;;;5044680;28;20057;-79
2021/06/03 08:33:24;;;;;;;9.45;6.20;;;25.20;89.90;;;;;;5074993;28;20076;-80
2021/06/03 08:35:51;;;;;;;6.60;5.95;;;25.10;90.30;;;;;;5046052;28;20036;-80
2021/06/03 08:38:18;;;;;;;7.47;6.60;;;25.10;90.20;;;;;;5043512;28;20420;-80
2021/06/03 08:40:51;;;;;;;7.43;5.65;;;25.10;90.10;;;;;;5044882;28;20056;-80
2021/06/03 08:43:20;;;;;;;6.75;5.72;;;25.00;90.30;;;;;;5076167;28;20143;-80
2021/06/03 08:45:48;;;;;;;9.10;5.95;;;25.00;90.20;;;;;;5043861;28;20140;-80
2021/06/03 08:48:16;;;;;;;6.80;6.05;;;24.90;90.10;;;;;;5042647;28;20044;-80
2021/06/03 08:50:46;;;;;;;8.48;6.57;;;24.80;90.10;;;;;;5047009;28;20056;-80
2021/06/03 08:53:13;;;;;;;8.02;6.15;;;24.60;90.30;;;;;;5040890;28;20053;-79
2021/06/03 08:58:29;;;;;;;9.40;6.28;;;24.20;90.90;;;;;;5066653;28;20162;-79
2021/06/03 09:00:57;;;;;;;6.63;5.85;;;24.10;91.30;;;;;;5038375;28;20492;-79
2021/06/03 09:03:25;;;;;;;10.95;6.10;;;24.00;91.30;;;;;;5041238;28;20041;-79
2021/06/03 09:05:53;;;;;;;10.23;5.90;;;24.00;91.90;;;;;;5034466;28;20048;-80
2021/06/03 09:08:26;;;;;;;8.27;5.57;;;24.30;92.10;;;;;;5047932;28;20059;-80
2021/06/03 09:10:55;;;;;;;9.95;6.35;;;24.70;91.90;;;;;;5040974;28;20493;-79
2021/06/03 09:13:25;;;;;;;7.22;5.40;;;25.00;90.80;;;;;;5041491;28;20045;-79
2021/06/03 09:15:55;;;;;;;6.60;5.32;;;25.30;90.90;;;;;;5069744;28;20059;-80
2021/06/03 09:18:35;;;;;;;8.52;5.80;;;25.60;90.60;;;;;;5043503;28;20057;-80
2021/06/03 09:21:25;;;;;;;6.03;5.15;;;25.90;90.10;;;;;;5051311;28;20044;-80
2021/06/03 09:24:03;;;;;;;8.35;5.53;;;26.00;89.30;;;;;;5037719;28;20051;-80
2021/06/03 09:26:36;;;;;;;8.93;5.18;;;26.20;87.90;;;;;;5056797;28;20055;-80
2021/06/03 09:29:07;;;;;;;6.53;5.73;;;26.30;86.80;;;;;;5039734;28;20053;-80
2021/06/03 09:31:35;;;;;;;6.93;5.25;;;26.50;86.20;;;;;;5034203;28;20095;-80
2021/06/03 09:34:16;;;;;;;7.60;5.45;;;26.50;85.60;;;;;;5034248;28;20051;-79
2021/06/03 09:36:51;;;;;;;6.47;5.18;;;26.70;85.80;;;;;;5061148;28;20057;-79
2021/06/03 09:39:23;;;;;;;6.82;4.88;;;26.80;84.40;;;;;;5044224;28;20053;-79
2021/06/03 09:41:52;;;;;;;12.60;5.50;;;27.00;85.30;;;;;;5041754;28;20131;-80
2021/06/03 09:44:31;;;;;;;5.93;5.00;;;27.20;82.60;;;;;;5058940;28;20051;-79
2021/06/03 09:47:05;;;;;;;9.07;5.18;;;27.40;84.90;;;;;;5045021;28;20059;-77
2021/06/03 09:49:39;;;;;;;6.13;5.47;;;27.60;82.00;;;;;;5071589;28;20045;-78
2021/06/03 09:52:09;;;;;;;6.55;5.35;;;27.70;82.00;;;;;;5034599;28;20060;-80
2021/06/03 09:54:37;;;;;;;8.93;5.90;;;27.90;81.70;;;;;;5042352;28;20103;-79
2021/06/03 09:57:06;;;;;;;9.32;6.18;;;27.90;79.40;;;;;;5042999;28;20052;-79
2021/06/03 09:59:43;;;;;;;11.15;6.75;;;28.00;80.80;;;;;;5039449;28;20045;-79
2021/06/03 10:02:11;;;;;;;8.25;6.28;;;28.20;79.30;;;;;;5039101;28;20053;-79
2021/06/03 10:04:47;;;;;;;7.75;5.18;;;28.20;80.20;;;;;;5071552;28;20388;-79
2021/06/03 10:07:28;;;;;;;9.82;5.22;;;28.20;79.00;;;;;;5038789;28;20059;-79
2021/06/03 10:09:56;;;;;;;5.60;5.03;;;28.30;79.80;;;;;;5037882;28;20045;-79
2021/06/03 10:12:23;;;;;;;7.60;5.43;;;28.50;77.60;;;;;;5056108;28;20041;-79
2021/06/03 10:14:53;;;;;;;5.90;4.55;;;28.40;79.10;;;;;;5057230;28;20614;-79
2021/06/03 10:17:28;;;;;;;9.03;5.20;;;28.50;79.30;;;;;;5041098;28;20045;-79
2021/06/03 10:20:11;;;;;;;8.73;6.18;;;28.70;79.40;;;;;;5047434;28;20041;-79
2021/06/03 10:22:41;;;;;;;8.18;5.50;;;29.10;78.60;;;;;;5044413;28;20144;-78
2021/06/03 10:25:08;;;;;;;8.27;5.28;;;29.50;76.00;;;;;;5038212;28;20057;-79
2021/06/03 10:27:43;;;;;;;5.70;4.75;;;29.70;75.70;;;;;;5037704;28;20041;-78
2021/06/03 10:30:13;;;;;;;4.10;3.70;;;29.70;74.90;;;;;;5072337;28;20136;-78
2021/06/03 10:32:41;;;;;;;6.13;3.75;;;29.50;74.20;;;;;;5032772;28;20496;-78
2021/06/03 10:35:13;;;;;;;6.70;3.72;;;29.40;75.90;;;;;;5048266;28;20107;-78
2021/06/03 10:37:42;;;;;;;5.55;3.78;;;29.50;74.20;;;;;;5042280;28;20060;-78
2021/06/03 10:40:13;;;;;;;3.95;3.40;;;29.70;75.30;;;;;;5039712;28;20053;-77
2021/06/03 10:42:41;;;;;;;6.03;3.88;;;29.90;74.30;;;;;;5040489;28;20070;-78
2021/06/03 10:45:11;;;;;;;3.30;3.00;;;30.00;73.50;;;;;;5041759;28;20060;-79
2021/06/03 10:47:38;;;;;;;3.88;3.25;;;30.10;74.90;;;;;;5044164;28;20049;-78
2021/06/03 10:50:11;;;;;;;5.93;2.95;;;30.60;72.30;;;;;;5039830;28;20058;-78
2021/06/03 10:52:38;;;;;;;4.35;3.45;;;31.00;72.90;;;;;;5042641;28;20056;-78
2021/06/03 10:55:06;;;;;;;4.10;3.00;;;31.20;70.20;;;;;;5059436;28;20061;-78
2021/06/03 10:57:52;;;;;;;4.38;2.72;;;31.10;67.50;;;;;;5036260;28;20147;-78
2021/06/03 11:00:39;;;;;;;3.28;2.97;;;30.80;69.10;;;;;;5055970;28;20045;-78
2021/06/03 11:03:08;;;;;;;3.17;2.85;;;30.70;69.00;;;;;;5066608;28;20055;-78
2021/06/03 11:05:44;;;;;;;3.45;2.90;;;30.80;70.50;;;;;;5043814;28;20539;-78
2021/06/03 11:08:34;;;;;;;2.92;2.70;;;31.10;69.90;;;;;;5043275;28;20124;-78
2021/06/03 11:11:13;;;;;;;3.40;2.67;;;31.40;69.30;;;;;;5047481;28;20052;-78
2021/06/03 11:13:48;;;;;;;3.60;2.80;;;31.80;68.40;;;;;;5077200;28;20524;-79
2021/06/03 11:16:20;;;;;;;3.38;3.00;;;32.00;65.80;;;;;;5068851;28;20076;-79
2021/06/03 11:18:50;;;;;;;4.10;3.05;;;31.90;68.20;;;;;;5043280;28;20051;-79
2021/06/03 11:21:38;;;;;;;3.38;2.50;;;31.70;67.00;;;;;;5050358;28;20056;-78
2021/06/03 11:24:31;;;;;;;5.88;2.90;;;31.50;69.50;;;;;;5068330;28;20507;-79
2021/06/03 11:27:00;;;;;;;3.25;2.95;;;31.60;67.40;;;;;;5075983;28;20800;-79
2021/06/03 11:29:29;;;;;;;3.88;3.00;;;31.70;68.30;;;;;;5042776;28;20055;-80
2021/06/03 11:32:02;;;;;;;5.97;3.80;;;32.00;69.00;;;;;;5044758;28;20056;-79
2021/06/03 11:34:38;;;;;;;4.72;3.85;;;32.40;66.50;;;;;;5049856;28;20506;-80
2021/06/03 11:37:13;;;;;;;6.10;3.45;;;32.40;66.10;;;;;;5080050;28;20029;-81
2021/06/03 11:39:44;;;;;;;4.20;3.17;;;32.00;67.00;;;;;;5045047;28;20141;-79
2021/06/03 11:42:25;;;;;;;2.90;2.70;;;32.10;68.70;;;;;;5042695;28;20048;-79
2021/06/03 11:45:16;;;;;;;4.30;3.13;;;32.50;64.40;;;;;;5074962;28;20057;-79
2021/06/03 11:47:43;;;;;;;5.35;3.30;;;33.00;64.50;;;;;;5042380;28;20063;-78
2021/06/03 11:50:16;;;;;;;4.80;2.70;;;33.20;64.30;;;;;;5048837;28;20566;-79
2021/06/03 11:53:04;;;;;;;4.38;3.00;;;33.50;66.50;;;;;;5055823;28;20100;-79
2021/06/03 11:55:34;;;;;;;7.70;3.08;;;33.80;61.20;;;;;;5041719;28;20423;-78
2021/06/03 11:58:27;;;;;;;3.88;2.28;;;33.70;59.20;;;;;;5039867;28;20095;-78
2021/06/03 12:01:07;;;;;;;4.57;2.90;;;33.30;62.80;;;;;;5071482;28;20078;-78
2021/06/03 12:03:56;;;;;;;3.75;2.35;;;33.60;60.40;;;;;;5038865;28;20458;-78
2021/06/03 12:06:28;;;;;;;4.15;2.15;;;34.30;61.40;;;;;;5046340;28;20076;-79
2021/06/03 12:09:14;;;;;;;5.82;2.10;;;35.40;59.60;;;;;;5042513;28;20135;-79
2021/06/03 12:11:43;;;;;;;3.88;2.42;;;36.20;56.80;;;;;;5039723;28;20107;-78
2021/06/03 12:14:15;;;;;;;4.53;2.78;;;36.80;56.10;;;;;;5057219;28;20044;-79
2021/06/03 12:16:45;;;;;;;3.78;2.88;;;37.00;53.90;;;;;;5042819;28;20061;-79
2021/06/03 12:19:22;;;;;;;4.38;2.78;;;36.80;55.90;;;;;;5073041;28;20117;-79
2021/06/03 12:22:01;;;;;;;4.55;3.10;;;37.20;55.60;;;;;;5036517;28;20045;-79
2021/06/03 12:24:36;;;;;;;4.85;3.13;;;37.60;52.30;;;;;;5045118;28;20055;-79
2021/06/03 12:27:03;;;;;;;4.15;2.63;;;37.70;51.40;;;;;;5076233;28;20053;-79
2021/06/03 12:29:32;;;;;;;5.13;2.53;;;37.60;52.20;;;;;;5039721;28;20392;-79
2021/06/03 12:32:02;;;;;;;8.18;2.80;;;37.60;53.00;;;;;;5042866;28;20060;-79
2021/06/03 12:34:31;;;;;;;5.00;3.08;;;37.50;51.20;;;;;;5038801;28;20041;-79
2021/06/03 12:37:27;;;;;;;3.00;2.65;;;37.70;52.00;;;;;;5039832;28;20063;-79
2021/06/03 12:39:55;;;;;;;3.00;2.50;;;37.40;52.90;;;;;;5042225;28;20037;-79
2021/06/03 12:42:28;;;;;;;3.00;2.45;;;37.40;51.50;;;;;;5050904;28;20056;-79
2021/06/03 12:45:03;;;;;;;2.42;2.22;;;37.70;51.10;;;;;;5071595;28;20057;-78
2021/06/03 12:47:33;;;;;;;2.63;2.30;;;38.40;51.50;;;;;;5054024;28;20052;-79
2021/06/03 12:50:18;;;;;;;5.07;2.72;;;39.40;50.40;;;;;;5040801;28;20056;-79
2021/06/03 12:52:47;;;;;;;3.72;2.50;;;40.30;49.00;;;;;;5041301;28;20073;-79
2021/06/03 12:55:19;;;;;;;4.37;2.87;;;40.90;47.70;;;;;;5054642;28;20045;-79
2021/06/03 12:57:47;;;;;;;6.35;2.78;;;41.00;45.50;;;;;;5052687;28;20030;-79
2021/06/03 13:00:25;;;;;;;4.88;2.70;;;40.20;46.70;;;;;;5038151;28;20049;-79
2021/06/03 13:02:52;;;;;;;2.95;2.65;;;39.10;48.00;;;;;;5038931;28;20393;-79
2021/06/03 13:05:21;;;;;;;3.67;2.83;;;37.90;50.10;;;;;;5041130;28;20053;-79